createdAt,value
2023-05-13T00:00:59.071Z,12.63
2023-05-13T00:03:28.995Z,12.07
2023-05-13T00:05:58.042Z,12.48
2023-05-13T00:08:28.644Z,11.75
2023-05-13T00:10:57.491Z,10.30
2023-05-13T00:13:27.121Z,10.88
2023-05-13T00:15:55.719Z,12.35
2023-05-13T00:18:24.268Z,12.43
2023-05-13T00:20:54.098Z,12.18
2023-05-13T00:23:22.374Z,12.02
2023-05-13T00:25:51.044Z,13.85
2023-05-13T00:28:21.130Z,13.27
2023-05-13T00:30:49.717Z,14.75
2023-05-13T00:33:18.324Z,12.35
2023-05-13T00:35:46.822Z,12.57
2023-05-13T00:38:17.830Z,12.40
2023-05-13T00:40:47.105Z,11.70
2023-05-13T00:43:15.568Z,11.75
2023-05-13T00:45:44.492Z,11.82
2023-05-13T00:48:13.256Z,11.75
2023-05-13T00:50:44.771Z,12.65
2023-05-13T00:53:14.356Z,13.45
2023-05-13T00:55:46.024Z,13.13
2023-05-13T00:58:15.295Z,12.25
2023-05-13T01:00:57.456Z,12.07
2023-05-13T01:03:34.941Z,12.82
2023-05-13T01:06:11.838Z,12.18
2023-05-13T01:08:49.029Z,11.93
2023-05-13T01:11:24.131Z,11.15
2023-05-13T01:16:30.433Z,11.05
2023-05-13T01:19:02.912Z,9.75
2023-05-13T01:21:40.843Z,10.20
2023-05-13T01:24:10.155Z,9.32
2023-05-13T01:26:39.225Z,10.13
2023-05-13T01:29:08.077Z,10.25
2023-05-13T01:31:37.874Z,11.25
2023-05-13T01:34:11.438Z,9.35
2023-05-13T01:36:41.854Z,10.00
2023-05-13T01:39:11.398Z,10.85
2023-05-13T01:41:39.686Z,8.68
2023-05-13T01:44:08.741Z,9.93
2023-05-13T01:46:38.666Z,9.77
2023-05-13T01:49:08.982Z,10.63
2023-05-13T01:51:38.313Z,9.43
2023-05-13T01:54:11.661Z,10.35
2023-05-13T01:56:45.315Z,10.35
2023-05-13T01:59:14.458Z,10.07
2023-05-13T02:01:46.753Z,10.02
2023-05-13T02:04:15.180Z,10.85
2023-05-13T02:06:44.298Z,10.10
2023-05-13T02:09:15.469Z,9.52
2023-05-13T02:11:44.460Z,9.63
2023-05-13T02:14:13.700Z,10.63
2023-05-13T02:16:41.938Z,10.40
2023-05-13T02:19:10.846Z,10.88
2023-05-13T02:21:39.661Z,10.65
2023-05-13T02:24:10.108Z,11.25
2023-05-13T02:26:41.603Z,11.32
2023-05-13T02:29:10.366Z,11.00
2023-05-13T02:31:39.345Z,10.43
2023-05-13T02:34:07.854Z,11.27
2023-05-13T02:36:36.402Z,9.98
2023-05-13T02:39:06.905Z,11.30
2023-05-13T02:41:36.599Z,10.75
2023-05-13T02:44:06.681Z,9.77
2023-05-13T02:46:36.320Z,10.15
2023-05-13T02:49:05.037Z,8.55
2023-05-13T02:51:33.910Z,9.32
2023-05-13T02:54:02.508Z,9.88
2023-05-13T02:56:32.420Z,10.30
2023-05-13T02:59:01.251Z,11.02
2023-05-13T03:01:32.927Z,11.38
2023-05-13T03:04:01.354Z,10.60
2023-05-13T03:06:29.700Z,10.70
2023-05-13T03:08:59.933Z,10.80
2023-05-13T03:11:28.430Z,11.35
2023-05-13T03:13:57.151Z,11.98
2023-05-13T03:16:26.166Z,12.63
2023-05-13T03:18:56.248Z,11.63
2023-05-13T03:21:24.889Z,12.13
2023-05-13T03:23:53.182Z,12.77
2023-05-13T03:26:22.537Z,13.38
2023-05-13T03:28:51.239Z,13.25
2023-05-13T03:31:19.713Z,14.45
2023-05-13T03:33:49.070Z,12.77
2023-05-13T03:36:20.090Z,12.15
2023-05-13T03:38:49.475Z,11.48
2023-05-13T03:41:18.082Z,12.30
2023-05-13T03:43:49.691Z,11.30
2023-05-13T03:46:18.518Z,11.82
2023-05-13T03:48:47.180Z,11.93
2023-05-13T03:51:16.229Z,11.38
2023-05-13T03:53:48.357Z,11.23
2023-05-13T03:56:16.981Z,10.75
2023-05-13T03:58:47.303Z,11.00
2023-05-13T04:01:15.384Z,10.43
2023-05-13T04:03:45.383Z,9.98
2023-05-13T04:06:14.773Z,10.80
2023-05-13T04:08:43.601Z,10.48
2023-05-13T04:11:13.927Z,9.48
2023-05-13T04:13:43.900Z,9.85
2023-05-13T04:16:12.263Z,8.82
2023-05-13T04:18:41.113Z,8.90
2023-05-13T04:21:10.298Z,9.25
2023-05-13T04:23:38.892Z,10.35
2023-05-13T04:26:07.905Z,9.00
2023-05-13T04:28:38.346Z,8.18
2023-05-13T04:31:06.906Z,8.63
2023-05-13T04:33:37.895Z,8.20
2023-05-13T04:36:07.325Z,8.73
2023-05-13T04:38:37.890Z,8.57
2023-05-13T04:41:08.756Z,7.78
2023-05-13T04:43:44.022Z,7.50
2023-05-13T04:46:12.874Z,6.78
2023-05-13T04:48:42.990Z,7.57
2023-05-13T04:51:11.933Z,6.85
2023-05-13T04:53:41.101Z,6.03
2023-05-13T04:56:10.895Z,6.13
2023-05-13T04:58:39.605Z,6.55
2023-05-13T05:01:10.472Z,4.60
2023-05-13T05:03:39.268Z,5.05
2023-05-13T05:06:07.926Z,4.20
2023-05-13T05:08:36.263Z,3.85
2023-05-13T05:11:05.371Z,3.80
2023-05-13T05:13:37.141Z,3.92
2023-05-13T05:16:06.426Z,3.53
2023-05-13T05:18:36.977Z,3.88
2023-05-13T05:21:07.016Z,3.70
2023-05-13T05:23:35.276Z,3.15
2023-05-13T05:26:11.788Z,3.30
2023-05-13T05:28:44.868Z,3.95
2023-05-13T05:31:15.221Z,4.05
2023-05-13T05:33:45.155Z,4.03
2023-05-13T05:36:16.460Z,3.50
2023-05-13T05:38:47.597Z,3.53
2023-05-13T05:41:17.667Z,3.22
2023-05-13T05:43:48.034Z,3.83
2023-05-13T05:46:17.160Z,3.53
2023-05-13T05:48:47.196Z,3.42
2023-05-13T05:51:15.964Z,3.53
2023-05-13T05:53:44.601Z,2.75
2023-05-13T05:56:15.568Z,2.90
2023-05-13T05:58:46.612Z,2.50
2023-05-13T06:01:15.676Z,2.80
2023-05-13T06:03:46.934Z,2.58
2023-05-13T06:06:20.464Z,2.63
2023-05-13T06:08:50.106Z,2.30
2023-05-13T06:11:19.723Z,1.90
2023-05-13T06:13:48.479Z,2.00
2023-05-13T06:16:17.018Z,1.92
2023-05-13T06:18:46.994Z,2.00
2023-05-13T06:21:16.626Z,2.08
2023-05-13T06:23:45.150Z,1.45
2023-05-13T06:26:15.437Z,1.95
2023-05-13T06:28:45.569Z,2.00
2023-05-13T06:31:15.635Z,1.65
2023-05-13T06:33:49.129Z,1.42
2023-05-13T06:36:25.701Z,1.92
2023-05-13T06:38:55.181Z,1.23
2023-05-13T06:41:26.108Z,1.40
2023-05-13T06:46:48.648Z,1.55
2023-05-13T06:49:18.645Z,1.40
2023-05-13T06:51:48.295Z,1.52
2023-05-13T06:54:16.504Z,1.10
2023-05-13T06:56:45.465Z,1.50
2023-05-13T06:59:14.372Z,1.10
2023-05-13T07:01:56.652Z,1.38
2023-05-13T07:04:26.923Z,1.20
2023-05-13T07:06:55.330Z,1.50
2023-05-13T07:09:23.757Z,1.50
2023-05-13T07:11:52.543Z,1.30
2023-05-13T07:14:21.425Z,2.03
2023-05-13T07:16:49.955Z,2.13
2023-05-13T07:19:18.781Z,1.85
2023-05-13T07:21:49.490Z,1.60
2023-05-13T07:24:18.379Z,1.52
2023-05-13T07:26:50.040Z,1.33
2023-05-13T07:29:18.378Z,1.42
2023-05-13T07:31:47.229Z,1.58
2023-05-13T07:34:15.686Z,1.33
2023-05-13T07:36:45.546Z,1.50
2023-05-13T07:39:15.664Z,1.60
2023-05-13T07:41:43.967Z,1.48
2023-05-13T07:44:13.249Z,1.20
2023-05-13T07:46:41.738Z,1.40
2023-05-13T07:49:10.004Z,1.15
2023-05-13T07:51:38.845Z,1.33
2023-05-13T07:54:07.716Z,1.50
2023-05-13T07:56:38.258Z,1.20
2023-05-13T07:59:06.765Z,1.23
2023-05-13T08:01:35.164Z,1.30
2023-05-13T08:04:03.958Z,1.23
2023-05-13T08:06:33.227Z,1.15
2023-05-13T08:09:02.043Z,1.30
2023-05-13T08:11:31.910Z,1.35
2023-05-13T08:14:01.682Z,1.05
2023-05-13T08:16:31.116Z,1.40
2023-05-13T08:18:59.596Z,1.25
2023-05-13T08:21:27.757Z,1.40
2023-05-13T08:23:57.082Z,1.70
2023-05-13T08:26:25.739Z,1.83
2023-05-13T08:28:55.347Z,1.17
2023-05-13T08:31:27.303Z,1.27
2023-05-13T08:33:56.152Z,1.10
2023-05-13T08:36:26.488Z,0.95
2023-05-13T08:38:55.024Z,1.10
2023-05-13T08:41:24.416Z,1.15
2023-05-13T08:43:55.199Z,1.63
2023-05-13T08:46:27.105Z,1.15
2023-05-13T08:48:56.961Z,1.25
2023-05-13T08:51:25.655Z,1.58
2023-05-13T08:53:56.501Z,1.15
2023-05-13T08:56:28.741Z,1.00
2023-05-13T08:58:57.827Z,1.30
2023-05-13T09:01:28.554Z,1.20
2023-05-13T09:03:59.813Z,1.50
2023-05-13T09:06:29.705Z,1.38
2023-05-13T09:08:59.764Z,1.10
2023-05-13T09:11:28.090Z,1.27
2023-05-13T09:14:00.549Z,1.42
2023-05-13T09:16:32.780Z,1.60
2023-05-13T09:19:02.765Z,1.50
2023-05-13T09:21:35.598Z,1.20
2023-05-13T09:24:10.964Z,1.10
2023-05-13T09:26:40.813Z,0.98
2023-05-13T09:29:23.112Z,1.40
2023-05-13T09:31:54.902Z,1.30
2023-05-13T09:34:28.065Z,1.30
2023-05-13T09:37:01.597Z,1.42
2023-05-13T09:39:33.897Z,1.10
2023-05-13T09:42:05.330Z,1.00
2023-05-13T09:44:35.941Z,1.25
2023-05-13T09:47:08.724Z,1.02
2023-05-13T09:49:37.513Z,1.00
2023-05-13T09:52:10.540Z,1.40
2023-05-13T09:54:39.610Z,1.30
2023-05-13T09:57:10.476Z,1.60
2023-05-13T09:59:40.269Z,1.63
2023-05-13T10:02:11.327Z,1.42
2023-05-13T10:04:40.511Z,1.20
2023-05-13T10:07:10.676Z,1.40
2023-05-13T10:09:41.000Z,1.70
2023-05-13T10:12:11.554Z,1.25
2023-05-13T10:14:41.793Z,1.02
2023-05-13T10:17:15.353Z,1.50
2023-05-13T10:19:44.123Z,1.30
2023-05-13T10:22:14.685Z,1.90
2023-05-13T10:24:43.906Z,1.23
2023-05-13T10:27:16.576Z,1.77
2023-05-13T10:29:46.906Z,1.50
2023-05-13T10:32:17.807Z,1.67
2023-05-13T10:34:47.908Z,1.50
2023-05-13T10:37:33.220Z,1.50
2023-05-13T10:40:30.372Z,1.63
2023-05-13T10:43:15.041Z,1.50
2023-05-13T10:45:47.820Z,1.80
2023-05-13T10:48:19.489Z,1.73
2023-05-13T10:50:57.494Z,1.40
2023-05-13T10:53:26.909Z,1.90
2023-05-13T10:56:02.248Z,1.90
2023-05-13T10:58:32.466Z,1.83
2023-05-13T11:01:21.010Z,1.67
2023-05-13T11:03:55.855Z,2.00
2023-05-13T11:06:27.148Z,1.90
2023-05-13T11:08:56.348Z,1.90
2023-05-13T11:11:33.250Z,2.13
2023-05-13T11:14:18.075Z,2.00
2023-05-13T11:16:54.406Z,2.13
2023-05-13T11:19:28.228Z,2.03
2023-05-13T11:21:58.117Z,2.35
2023-05-13T11:24:28.640Z,2.58
2023-05-13T11:26:59.056Z,2.90
2023-05-13T11:29:32.660Z,2.90
2023-05-13T11:32:02.162Z,2.90
2023-05-13T11:34:33.929Z,2.80
2023-05-13T11:37:09.829Z,2.58
2023-05-13T11:39:40.937Z,2.90
2023-05-13T11:42:10.354Z,2.83
2023-05-13T11:44:46.356Z,2.80
2023-05-13T11:47:15.036Z,2.70
2023-05-13T11:49:46.652Z,2.40
2023-05-13T11:52:18.179Z,2.50
2023-05-13T11:54:49.777Z,2.42
2023-05-13T11:57:24.210Z,2.42
2023-05-13T11:59:55.952Z,1.60
2023-05-13T12:02:25.990Z,1.77
2023-05-13T12:05:02.039Z,1.45
2023-05-13T12:07:30.373Z,1.70
2023-05-13T12:09:59.702Z,1.40
2023-05-13T12:12:29.826Z,1.30
2023-05-13T12:15:05.738Z,1.52
2023-05-13T12:17:35.306Z,1.55
2023-05-13T12:20:14.259Z,1.38
2023-05-13T12:22:58.257Z,1.50
2023-05-13T12:25:45.321Z,1.37
2023-05-13T12:28:24.692Z,1.55
2023-05-13T12:30:56.450Z,1.50
2023-05-13T12:33:26.580Z,1.48
2023-05-13T12:36:17.835Z,1.90
2023-05-13T12:39:05.323Z,1.60
2023-05-13T12:41:36.286Z,1.52
2023-05-13T12:44:09.024Z,1.50
2023-05-13T12:46:40.061Z,1.90
2023-05-13T12:49:16.688Z,1.65
2023-05-13T12:51:48.005Z,1.77
2023-05-13T12:54:16.178Z,1.80
2023-05-13T12:56:46.588Z,2.00
2023-05-13T12:59:19.108Z,1.90
2023-05-13T13:01:50.085Z,1.92
2023-05-13T13:04:19.951Z,2.25
2023-05-13T13:06:50.898Z,1.73
2023-05-13T13:09:19.625Z,2.03
2023-05-13T13:11:49.625Z,1.70
2023-05-13T13:14:23.938Z,1.67
2023-05-13T13:16:54.145Z,1.92
2023-05-13T13:19:22.986Z,1.90
2023-05-13T13:21:56.039Z,1.73
2023-05-13T13:24:27.096Z,1.85
2023-05-13T13:26:56.581Z,2.15
2023-05-13T13:29:25.118Z,2.55
2023-05-13T13:31:53.647Z,1.90
2023-05-13T13:34:22.878Z,2.00
2023-05-13T13:36:51.443Z,1.80
2023-05-13T13:39:21.867Z,1.70
2023-05-13T13:41:50.648Z,2.28
2023-05-13T13:44:19.492Z,2.13
2023-05-13T13:46:48.121Z,1.88
2023-05-13T13:49:23.703Z,1.80
2023-05-13T13:51:53.294Z,1.60
2023-05-13T13:54:23.738Z,1.90
2023-05-13T13:56:53.935Z,1.83
2023-05-13T13:59:22.646Z,1.70
2023-05-13T14:01:51.562Z,1.55
2023-05-13T14:04:23.659Z,1.70
2023-05-13T14:06:53.016Z,1.80
2023-05-13T14:09:23.442Z,1.85
2023-05-13T14:11:52.364Z,1.77
2023-05-13T14:14:21.096Z,1.63
2023-05-13T14:16:49.991Z,1.90
2023-05-13T14:19:19.400Z,1.50
2023-05-13T14:21:48.573Z,1.90
2023-05-13T14:24:21.435Z,1.63
2023-05-13T14:26:56.149Z,1.75
2023-05-13T14:31:57.577Z,1.60
2023-05-13T14:34:26.859Z,1.55
2023-05-13T14:36:55.448Z,1.90
2023-05-13T14:39:24.825Z,1.92
2023-05-13T14:41:55.889Z,1.63
2023-05-13T14:44:24.601Z,1.95
2023-05-13T14:46:53.383Z,1.83
2023-05-13T14:49:22.077Z,1.23
2023-05-13T14:51:50.964Z,2.05
2023-05-13T14:54:19.504Z,1.80
2023-05-13T14:56:48.543Z,1.80
2023-05-13T14:59:19.369Z,1.83
2023-05-13T15:01:48.265Z,1.90
2023-05-13T15:04:17.640Z,2.00
2023-05-13T15:06:46.217Z,1.95
2023-05-13T15:09:14.879Z,1.90
2023-05-13T15:11:49.366Z,1.75
2023-05-13T15:14:22.467Z,2.13
2023-05-13T15:16:52.259Z,1.88
2023-05-13T15:19:21.386Z,1.70
2023-05-13T15:21:49.878Z,1.90
2023-05-13T15:24:18.359Z,1.67
2023-05-13T15:26:46.762Z,1.88
2023-05-13T15:29:16.707Z,1.95
2023-05-13T15:31:47.350Z,1.70
2023-05-13T15:34:17.336Z,1.98
2023-05-13T15:36:46.489Z,1.80
2023-05-13T15:39:16.837Z,1.55
2023-05-13T15:41:45.509Z,1.80
2023-05-13T15:44:14.442Z,1.60
2023-05-13T15:46:48.746Z,2.10
2023-05-13T15:49:19.526Z,2.28
2023-05-13T15:51:49.128Z,1.80
2023-05-13T15:54:17.514Z,1.80
2023-05-13T15:56:46.121Z,1.70
2023-05-13T15:59:14.901Z,1.38
2023-05-13T16:01:43.453Z,1.63
2023-05-13T16:04:12.530Z,1.63
2023-05-13T16:06:42.951Z,1.83
2023-05-13T16:09:13.109Z,3.97
2023-05-13T16:11:42.672Z,9.35
2023-05-13T16:14:11.121Z,5.57
2023-05-13T16:16:48.508Z,5.38
2023-05-13T16:19:19.886Z,2.10
2023-05-13T16:21:50.006Z,2.80
2023-05-13T16:24:20.361Z,5.32
2023-05-13T16:26:50.593Z,6.65
2023-05-13T16:29:19.791Z,4.38
2023-05-13T16:31:49.065Z,5.25
2023-05-13T16:34:19.673Z,9.27
2023-05-13T16:36:52.725Z,11.50
2023-05-13T16:39:28.632Z,3.55
2023-05-13T16:41:59.699Z,2.03
2023-05-13T16:44:28.494Z,2.03
2023-05-13T16:46:58.658Z,2.10
2023-05-13T16:49:34.576Z,2.20
2023-05-13T16:52:04.586Z,1.70
2023-05-13T16:54:34.003Z,2.05
2023-05-13T16:57:03.740Z,2.08
2023-05-13T16:59:33.680Z,2.00
2023-05-13T17:02:02.633Z,1.90
2023-05-13T17:04:40.194Z,1.75
2023-05-13T17:07:13.179Z,1.42
2023-05-13T17:09:42.281Z,2.10
2023-05-13T17:12:17.786Z,1.98
2023-05-13T17:14:47.442Z,1.77
2023-05-13T17:17:20.095Z,2.00
2023-05-13T17:19:50.713Z,1.90
2023-05-13T17:22:21.204Z,2.10
2023-05-13T17:24:49.787Z,2.15
2023-05-13T17:27:22.553Z,1.85
2023-05-13T17:29:51.732Z,1.92
2023-05-13T17:32:20.105Z,1.85
2023-05-13T17:34:48.431Z,2.00
2023-05-13T17:37:16.775Z,1.95
2023-05-13T17:39:48.539Z,2.10
2023-05-13T17:42:17.951Z,2.35
2023-05-13T17:44:46.287Z,1.77
2023-05-13T17:47:15.038Z,2.00
2023-05-13T17:49:43.831Z,2.15
2023-05-13T17:52:12.602Z,1.83
2023-05-13T17:54:41.145Z,1.95
2023-05-13T17:57:12.949Z,2.03
2023-05-13T17:59:41.830Z,2.65
2023-05-13T18:02:11.390Z,2.33
2023-05-13T18:04:41.188Z,2.33
2023-05-13T18:07:10.337Z,2.42
2023-05-13T18:09:38.945Z,2.80
2023-05-13T18:12:08.903Z,2.50
2023-05-13T18:14:39.554Z,2.42
2023-05-13T18:17:08.557Z,2.38
2023-05-13T18:19:37.643Z,2.30
2023-05-13T18:22:10.971Z,2.60
2023-05-13T18:24:41.412Z,2.72
2023-05-13T18:27:10.750Z,2.28
2023-05-13T18:29:40.766Z,2.30
2023-05-13T18:32:10.283Z,1.92
2023-05-13T18:34:40.036Z,2.10
2023-05-13T18:37:09.464Z,2.67
2023-05-13T18:39:38.660Z,2.65
2023-05-13T18:42:07.950Z,2.17
2023-05-13T18:44:36.635Z,2.53
2023-05-13T18:47:07.316Z,2.33
2023-05-13T18:49:36.048Z,2.45
2023-05-13T18:52:04.408Z,2.67
2023-05-13T18:54:33.842Z,2.53
2023-05-13T18:57:04.349Z,2.65
2023-05-13T18:59:34.157Z,2.35
2023-05-13T19:02:05.804Z,2.30
2023-05-13T19:04:39.869Z,2.70
2023-05-13T19:07:08.701Z,2.28
2023-05-13T19:09:37.557Z,2.60
2023-05-13T19:12:12.008Z,2.50
2023-05-13T19:14:43.075Z,2.13
2023-05-13T19:17:12.033Z,2.45
2023-05-13T19:19:47.182Z,2.38
2023-05-13T19:22:17.226Z,2.30
2023-05-13T19:24:46.741Z,2.28
2023-05-13T19:27:15.859Z,2.80
2023-05-13T19:29:48.563Z,2.97
2023-05-13T19:32:18.264Z,3.20
2023-05-13T19:34:50.028Z,3.78
2023-05-13T19:37:20.749Z,4.30
2023-05-13T19:39:59.744Z,5.75
2023-05-13T19:42:29.276Z,4.15
2023-05-13T19:44:57.907Z,4.20
2023-05-13T19:47:27.811Z,4.38
2023-05-13T19:49:57.551Z,3.90
2023-05-13T19:52:26.844Z,4.15
2023-05-13T19:54:55.295Z,5.43
2023-05-13T19:57:23.695Z,4.50
2023-05-13T19:59:52.393Z,7.20
2023-05-13T20:02:21.599Z,6.57
2023-05-13T20:04:50.456Z,5.57
2023-05-13T20:07:26.554Z,4.85
2023-05-13T20:09:57.402Z,5.13
2023-05-13T20:12:30.484Z,4.75
2023-05-13T20:15:03.657Z,5.28
2023-05-13T20:17:32.398Z,5.35
2023-05-13T20:20:01.377Z,5.35
2023-05-13T20:22:33.127Z,5.50
2023-05-13T20:25:03.040Z,5.38
2023-05-13T20:27:33.776Z,5.63
2023-05-13T20:30:03.481Z,4.95
2023-05-13T20:32:32.843Z,5.90
2023-05-13T20:35:03.433Z,5.63
2023-05-13T20:37:33.636Z,5.82
2023-05-13T20:40:01.940Z,5.70
2023-05-13T20:42:33.862Z,5.78
2023-05-13T20:45:05.720Z,5.45
2023-05-13T20:47:34.679Z,6.32
2023-05-13T20:50:03.783Z,5.53
2023-05-13T20:52:37.480Z,5.57
2023-05-13T20:55:17.010Z,5.70
2023-05-13T20:57:47.417Z,6.35
2023-05-13T21:00:17.822Z,5.90
2023-05-13T21:02:52.077Z,5.63
2023-05-13T21:05:22.490Z,5.75
2023-05-13T21:07:57.199Z,5.03
2023-05-13T21:10:26.157Z,5.72
2023-05-13T21:12:54.908Z,6.15
2023-05-13T21:15:23.437Z,5.68
2023-05-13T21:17:54.654Z,6.05
2023-05-13T21:20:24.051Z,6.18
2023-05-13T21:22:56.460Z,5.82
2023-05-13T21:25:25.014Z,6.43
2023-05-13T21:27:53.912Z,5.18
2023-05-13T21:30:22.749Z,5.78
2023-05-13T21:32:52.146Z,6.03
2023-05-13T21:35:20.689Z,5.78
2023-05-13T21:37:50.376Z,6.50
2023-05-13T21:40:22.202Z,6.07
2023-05-13T21:42:51.148Z,5.63
2023-05-13T21:45:22.361Z,5.53
2023-05-13T21:47:51.366Z,5.43
2023-05-13T21:50:20.743Z,5.93
2023-05-13T21:52:49.534Z,5.68
2023-05-13T21:55:18.691Z,5.50
2023-05-13T21:57:52.693Z,6.47
2023-05-13T22:00:21.984Z,6.95
2023-05-13T22:02:57.454Z,7.75
2023-05-13T22:05:28.830Z,6.97
2023-05-13T22:08:00.290Z,7.18
2023-05-13T22:10:29.376Z,7.55
2023-05-13T22:12:59.850Z,7.30
2023-05-13T22:15:28.434Z,7.13
2023-05-13T22:17:57.118Z,7.22
2023-05-13T22:20:26.126Z,8.10
2023-05-13T22:22:54.540Z,8.20
2023-05-13T22:25:23.500Z,7.68
2023-05-13T22:27:52.308Z,8.55
2023-05-13T22:30:24.609Z,8.75
2023-05-13T22:32:54.669Z,7.45
2023-05-13T22:35:24.590Z,7.38
2023-05-13T22:37:55.278Z,7.75
2023-05-13T22:40:26.360Z,8.52
2023-05-13T22:42:55.372Z,9.02
2023-05-13T22:45:27.290Z,7.95
2023-05-13T22:47:56.032Z,7.55
2023-05-13T22:50:25.469Z,7.85
2023-05-13T22:52:55.357Z,8.18
2023-05-13T22:55:25.321Z,6.70
2023-05-13T22:57:53.883Z,6.93
2023-05-13T23:00:23.110Z,6.60
2023-05-13T23:02:54.141Z,7.38
2023-05-13T23:05:26.428Z,6.68
2023-05-13T23:07:55.290Z,7.38
2023-05-13T23:10:23.776Z,7.20
2023-05-13T23:12:52.502Z,7.75
2023-05-13T23:18:20.506Z,7.85
2023-05-13T23:20:51.741Z,7.13
2023-05-13T23:23:20.848Z,7.80
2023-05-13T23:25:50.886Z,7.90
2023-05-13T23:28:19.804Z,9.07
2023-05-13T23:30:48.176Z,10.00
2023-05-13T23:33:16.617Z,9.15
2023-05-13T23:35:53.254Z,8.13
2023-05-13T23:38:25.238Z,7.90
2023-05-13T23:40:54.856Z,8.15
2023-05-13T23:43:24.991Z,9.07
2023-05-13T23:45:53.730Z,9.65
2023-05-13T23:48:22.420Z,10.68
2023-05-13T23:50:53.084Z,9.45
2023-05-13T23:53:21.574Z,10.05
2023-05-13T23:55:49.857Z,10.55
2023-05-13T23:58:18.843Z,9.73
